sensor_id;sensor_type;location;lat;lon;timestamp;temperature;humidity
48860;DHT22;34679;51.436;-2.518;2023-07-13T00:00:03;14.80;99.90
48860;DHT22;34679;51.436;-2.518;2023-07-13T00:02:34;14.70;99.90
48860;DHT22;34679;51.436;-2.518;2023-07-13T00:05:00;14.60;99.90
48860;DHT22;34679;51.436;-2.518;2023-07-13T00:07:25;14.50;99.90
48860;DHT22;34679;51.436;-2.518;2023-07-13T00:09:51;14.50;99.90
48860;DHT22;34679;51.436;-2.518;2023-07-13T00:12:29;14.60;99.90
48860;DHT22;34679;51.436;-2.518;2023-07-13T00:14:59;14.60;99.90
48860;DHT22;34679;51.436;-2.518;2023-07-13T00:17:26;14.60;99.90
48860;DHT22;34679;51.436;-2.518;2023-07-13T00:19:53;14.60;99.90
48860;DHT22;34679;51.436;-2.518;2023-07-13T00:22:19;14.60;99.90
48860;DHT22;34679;51.436;-2.518;2023-07-13T00:24:45;14.60;99.90
48860;DHT22;34679;51.436;-2.518;2023-07-13T00:27:11;14.50;99.90
48860;DHT22;34679;51.436;-2.518;2023-07-13T00:29:37;14.50;99.90
48860;DHT22;34679;51.436;-2.518;2023-07-13T00:32:04;14.50;99.90
48860;DHT22;34679;51.436;-2.518;2023-07-13T00:34:30;14.50;99.90
48860;DHT22;34679;51.436;-2.518;2023-07-13T00:36:56;14.50;99.90
48860;DHT22;34679;51.436;-2.518;2023-07-13T00:39:22;14.50;99.90
48860;DHT22;34679;51.436;-2.518;2023-07-13T00:41:48;14.60;99.90
48860;DHT22;34679;51.436;-2.518;2023-07-13T00:44:15;14.70;99.90
48860;DHT22;34679;51.436;-2.518;2023-07-13T00:46:41;14.70;99.90
48860;DHT22;34679;51.436;-2.518;2023-07-13T00:49:11;14.60;99.90
48860;DHT22;34679;51.436;-2.518;2023-07-13T00:51:52;14.70;99.90
48860;DHT22;34679;51.436;-2.518;2023-07-13T00:54:22;14.70;99.90
48860;DHT22;34679;51.436;-2.518;2023-07-13T00:56:51;14.70;99.90
48860;DHT22;34679;51.436;-2.518;2023-07-13T00:59:18;14.70;99.90
48860;DHT22;34679;51.436;-2.518;2023-07-13T01:01:45;14.70;99.90
48860;DHT22;34679;51.436;-2.518;2023-07-13T01:04:11;14.60;99.90
48860;DHT22;34679;51.436;-2.518;2023-07-13T01:06:39;14.60;99.90
48860;DHT22;34679;51.436;-2.518;2023-07-13T01:09:07;14.50;99.90
48860;DHT22;34679;51.436;-2.518;2023-07-13T01:11:34;14.50;99.90
48860;DHT22;34679;51.436;-2.518;2023-07-13T01:14:00;14.50;99.90
48860;DHT22;34679;51.436;-2.518;2023-07-13T01:16:33;14.50;99.90
48860;DHT22;34679;51.436;-2.518;2023-07-13T01:18:59;14.40;99.90
48860;DHT22;34679;51.436;-2.518;2023-07-13T01:21:28;14.50;99.90
48860;DHT22;34679;51.436;-2.518;2023-07-13T01:23:54;14.40;99.90
48860;DHT22;34679;51.436;-2.518;2023-07-13T01:26:20;14.40;99.90
48860;DHT22;34679;51.436;-2.518;2023-07-13T01:28:45;14.50;99.90
48860;DHT22;34679;51.436;-2.518;2023-07-13T01:31:12;14.40;99.90
48860;DHT22;34679;51.436;-2.518;2023-07-13T01:33:39;14.40;99.90
48860;DHT22;34679;51.436;-2.518;2023-07-13T01:36:07;14.40;99.90
48860;DHT22;34679;51.436;-2.518;2023-07-13T01:38:35;14.40;99.90
48860;DHT22;34679;51.436;-2.518;2023-07-13T01:41:02;14.50;99.90
48860;DHT22;34679;51.436;-2.518;2023-07-13T01:43:28;14.40;99.90
48860;DHT22;34679;51.436;-2.518;2023-07-13T01:45:54;14.40;99.90
48860;DHT22;34679;51.436;-2.518;2023-07-13T01:48:20;14.30;99.90
48860;DHT22;34679;51.436;-2.518;2023-07-13T01:50:47;14.30;99.90
48860;DHT22;34679;51.436;-2.518;2023-07-13T01:53:13;14.40;99.90
48860;DHT22;34679;51.436;-2.518;2023-07-13T01:55:39;14.40;99.90
48860;DHT22;34679;51.436;-2.518;2023-07-13T01:58:04;14.40;99.90
48860;DHT22;34679;51.436;-2.518;2023-07-13T02:00:30;14.30;99.90
48860;DHT22;34679;51.436;-2.518;2023-07-13T02:02:56;14.30;99.90
48860;DHT22;34679;51.436;-2.518;2023-07-13T02:05:22;14.30;99.90
48860;DHT22;34679;51.436;-2.518;2023-07-13T02:07:48;14.30;99.90
48860;DHT22;34679;51.436;-2.518;2023-07-13T02:10:14;14.30;99.90
48860;DHT22;34679;51.436;-2.518;2023-07-13T02:12:41;14.30;99.90
48860;DHT22;34679;51.436;-2.518;2023-07-13T02:15:07;14.30;99.90
48860;DHT22;34679;51.436;-2.518;2023-07-13T02:17:34;14.20;99.90
48860;DHT22;34679;51.436;-2.518;2023-07-13T02:20:00;14.20;99.90
48860;DHT22;34679;51.436;-2.518;2023-07-13T02:22:26;14.20;99.90
48860;DHT22;34679;51.436;-2.518;2023-07-13T02:24:52;14.10;99.90
48860;DHT22;34679;51.436;-2.518;2023-07-13T02:27:18;14.10;99.90
48860;DHT22;34679;51.436;-2.518;2023-07-13T02:29:44;14.00;99.90
48860;DHT22;34679;51.436;-2.518;2023-07-13T02:32:10;14.00;99.90
48860;DHT22;34679;51.436;-2.518;2023-07-13T02:34:35;14.00;99.90
48860;DHT22;34679;51.436;-2.518;2023-07-13T02:37:01;13.90;99.90
48860;DHT22;34679;51.436;-2.518;2023-07-13T02:39:27;13.80;99.90
48860;DHT22;34679;51.436;-2.518;2023-07-13T02:41:52;13.70;99.90
48860;DHT22;34679;51.436;-2.518;2023-07-13T02:44:18;13.70;99.90
48860;DHT22;34679;51.436;-2.518;2023-07-13T02:46:44;13.60;99.90
48860;DHT22;34679;51.436;-2.518;2023-07-13T02:49:10;13.60;99.90
48860;DHT22;34679;51.436;-2.518;2023-07-13T02:51:36;13.60;99.90
48860;DHT22;34679;51.436;-2.518;2023-07-13T02:54:03;13.60;99.90
48860;DHT22;34679;51.436;-2.518;2023-07-13T02:56:30;13.50;99.90
48860;DHT22;34679;51.436;-2.518;2023-07-13T02:58:56;13.40;99.90
48860;DHT22;34679;51.436;-2.518;2023-07-13T03:01:23;13.40;99.90
48860;DHT22;34679;51.436;-2.518;2023-07-13T03:03:50;13.40;99.90
48860;DHT22;34679;51.436;-2.518;2023-07-13T03:06:16;13.40;99.90
48860;DHT22;34679;51.436;-2.518;2023-07-13T03:08:43;13.40;99.90
48860;DHT22;34679;51.436;-2.518;2023-07-13T03:11:15;13.40;99.90
48860;DHT22;34679;51.436;-2.518;2023-07-13T03:13:41;13.30;99.90
48860;DHT22;34679;51.436;-2.518;2023-07-13T03:16:09;13.30;99.90
48860;DHT22;34679;51.436;-2.518;2023-07-13T03:18:36;13.20;99.90
48860;DHT22;34679;51.436;-2.518;2023-07-13T03:21:02;13.20;99.90
48860;DHT22;34679;51.436;-2.518;2023-07-13T03:23:28;13.20;99.90
48860;DHT22;34679;51.436;-2.518;2023-07-13T03:26:09;13.20;99.90
48860;DHT22;34679;51.436;-2.518;2023-07-13T03:28:35;13.20;99.90
48860;DHT22;34679;51.436;-2.518;2023-07-13T03:31:13;13.20;99.90
48860;DHT22;34679;51.436;-2.518;2023-07-13T03:33:39;13.20;99.90
48860;DHT22;34679;51.436;-2.518;2023-07-13T03:36:06;13.20;99.90
48860;DHT22;34679;51.436;-2.518;2023-07-13T03:38:32;13.20;99.90
48860;DHT22;34679;51.436;-2.518;2023-07-13T03:40:58;13.20;99.90
48860;DHT22;34679;51.436;-2.518;2023-07-13T03:43:24;13.10;99.90
48860;DHT22;34679;51.436;-2.518;2023-07-13T03:45:50;13.10;99.90
48860;DHT22;34679;51.436;-2.518;2023-07-13T03:48:16;13.20;99.90
48860;DHT22;34679;51.436;-2.518;2023-07-13T03:50:42;13.20;99.90
48860;DHT22;34679;51.436;-2.518;2023-07-13T03:53:08;13.30;99.90
48860;DHT22;34679;51.436;-2.518;2023-07-13T03:55:33;13.30;99.90
48860;DHT22;34679;51.436;-2.518;2023-07-13T03:58:24;13.30;99.90
48860;DHT22;34679;51.436;-2.518;2023-07-13T04:00:47;13.40;99.90
48860;DHT22;34679;51.436;-2.518;2023-07-13T04:03:12;13.40;99.90
48860;DHT22;34679;51.436;-2.518;2023-07-13T04:05:38;13.30;99.90
48860;DHT22;34679;51.436;-2.518;2023-07-13T04:08:06;13.40;99.90
48860;DHT22;34679;51.436;-2.518;2023-07-13T04:10:32;13.40;99.90
48860;DHT22;34679;51.436;-2.518;2023-07-13T04:12:57;13.40;99.90
48860;DHT22;34679;51.436;-2.518;2023-07-13T04:15:23;13.40;99.90
48860;DHT22;34679;51.436;-2.518;2023-07-13T04:17:49;13.40;99.90
48860;DHT22;34679;51.436;-2.518;2023-07-13T04:20:14;13.40;99.90
48860;DHT22;34679;51.436;-2.518;2023-07-13T04:22:40;13.40;99.90
48860;DHT22;34679;51.436;-2.518;2023-07-13T04:25:06;13.40;99.90
48860;DHT22;34679;51.436;-2.518;2023-07-13T04:27:32;13.50;99.90
48860;DHT22;34679;51.436;-2.518;2023-07-13T04:29:58;13.50;99.90
48860;DHT22;34679;51.436;-2.518;2023-07-13T04:32:23;13.60;99.90
48860;DHT22;34679;51.436;-2.518;2023-07-13T04:34:49;13.70;99.90
48860;DHT22;34679;51.436;-2.518;2023-07-13T04:37:20;13.70;99.90
48860;DHT22;34679;51.436;-2.518;2023-07-13T04:39:46;13.80;99.90
48860;DHT22;34679;51.436;-2.518;2023-07-13T04:42:12;13.90;99.90
48860;DHT22;34679;51.436;-2.518;2023-07-13T04:44:38;14.00;99.90
48860;DHT22;34679;51.436;-2.518;2023-07-13T04:47:03;14.00;99.90
48860;DHT22;34679;51.436;-2.518;2023-07-13T04:49:29;14.10;99.90
48860;DHT22;34679;51.436;-2.518;2023-07-13T04:51:55;14.10;99.90
48860;DHT22;34679;51.436;-2.518;2023-07-13T04:54:21;14.20;99.90
48860;DHT22;34679;51.436;-2.518;2023-07-13T04:56:47;14.20;99.90
48860;DHT22;34679;51.436;-2.518;2023-07-13T04:59:13;14.30;99.90
48860;DHT22;34679;51.436;-2.518;2023-07-13T05:01:39;14.30;99.90
48860;DHT22;34679;51.436;-2.518;2023-07-13T05:04:06;14.40;99.90
48860;DHT22;34679;51.436;-2.518;2023-07-13T05:06:31;14.50;99.90
48860;DHT22;34679;51.436;-2.518;2023-07-13T05:08:57;14.50;99.90
48860;DHT22;34679;51.436;-2.518;2023-07-13T05:11:23;14.60;99.90
48860;DHT22;34679;51.436;-2.518;2023-07-13T05:13:49;14.60;99.90
48860;DHT22;34679;51.436;-2.518;2023-07-13T05:16:15;14.70;99.90
48860;DHT22;34679;51.436;-2.518;2023-07-13T05:18:41;14.80;99.90
48860;DHT22;34679;51.436;-2.518;2023-07-13T05:21:08;14.90;99.90
48860;DHT22;34679;51.436;-2.518;2023-07-13T05:23:35;15.30;99.90
48860;DHT22;34679;51.436;-2.518;2023-07-13T05:26:02;15.60;99.90
48860;DHT22;34679;51.436;-2.518;2023-07-13T05:28:30;15.60;99.90
48860;DHT22;34679;51.436;-2.518;2023-07-13T05:30:56;15.60;99.90
48860;DHT22;34679;51.436;-2.518;2023-07-13T05:33:22;15.60;99.90
48860;DHT22;34679;51.436;-2.518;2023-07-13T05:35:48;15.60;99.90
48860;DHT22;34679;51.436;-2.518;2023-07-13T05:38:14;15.80;99.90
48860;DHT22;34679;51.436;-2.518;2023-07-13T05:40:42;15.80;99.90
48860;DHT22;34679;51.436;-2.518;2023-07-13T05:43:07;15.80;99.90
48860;DHT22;34679;51.436;-2.518;2023-07-13T05:45:33;15.60;99.90
48860;DHT22;34679;51.436;-2.518;2023-07-13T05:47:58;15.50;99.90
48860;DHT22;34679;51.436;-2.518;2023-07-13T05:50:26;15.30;99.90
48860;DHT22;34679;51.436;-2.518;2023-07-13T05:52:51;15.30;99.90
48860;DHT22;34679;51.436;-2.518;2023-07-13T05:55:18;15.30;99.90
48860;DHT22;34679;51.436;-2.518;2023-07-13T05:57:44;15.40;99.90
48860;DHT22;34679;51.436;-2.518;2023-07-13T06:00:10;15.40;99.90
48860;DHT22;34679;51.436;-2.518;2023-07-13T06:02:36;15.40;99.90
48860;DHT22;34679;51.436;-2.518;2023-07-13T06:05:02;15.50;99.90
48860;DHT22;34679;51.436;-2.518;2023-07-13T06:07:28;15.50;99.90
48860;DHT22;34679;51.436;-2.518;2023-07-13T06:09:53;15.50;99.90
48860;DHT22;34679;51.436;-2.518;2023-07-13T06:12:19;15.50;99.90
48860;DHT22;34679;51.436;-2.518;2023-07-13T06:14:45;15.40;99.90
48860;DHT22;34679;51.436;-2.518;2023-07-13T06:17:10;15.50;99.90
48860;DHT22;34679;51.436;-2.518;2023-07-13T06:19:36;15.60;99.90
48860;DHT22;34679;51.436;-2.518;2023-07-13T06:22:02;15.70;99.90
48860;DHT22;34679;51.436;-2.518;2023-07-13T06:24:28;15.80;99.90
48860;DHT22;34679;51.436;-2.518;2023-07-13T06:26:54;16.00;99.90
48860;DHT22;34679;51.436;-2.518;2023-07-13T06:29:20;16.10;99.90
48860;DHT22;34679;51.436;-2.518;2023-07-13T06:31:45;16.20;99.90
48860;DHT22;34679;51.436;-2.518;2023-07-13T06:34:11;16.30;99.90
48860;DHT22;34679;51.436;-2.518;2023-07-13T06:36:37;16.40;99.90
48860;DHT22;34679;51.436;-2.518;2023-07-13T06:39:04;16.50;99.90
48860;DHT22;34679;51.436;-2.518;2023-07-13T06:41:30;17.20;99.90
48860;DHT22;34679;51.436;-2.518;2023-07-13T06:43:56;18.30;99.90
48860;DHT22;34679;51.436;-2.518;2023-07-13T06:46:22;19.10;99.90
48860;DHT22;34679;51.436;-2.518;2023-07-13T06:48:48;19.70;99.90
48860;DHT22;34679;51.436;-2.518;2023-07-13T06:51:14;19.70;99.90
48860;DHT22;34679;51.436;-2.518;2023-07-13T06:53:40;19.40;99.90
48860;DHT22;34679;51.436;-2.518;2023-07-13T06:56:05;19.20;99.90
48860;DHT22;34679;51.436;-2.518;2023-07-13T06:58:33;18.90;99.90
48860;DHT22;34679;51.436;-2.518;2023-07-13T07:00:59;18.50;99.90
48860;DHT22;34679;51.436;-2.518;2023-07-13T07:03:24;18.20;99.90
48860;DHT22;34679;51.436;-2.518;2023-07-13T07:05:50;17.90;99.90
48860;DHT22;34679;51.436;-2.518;2023-07-13T07:08:16;17.50;99.90
48860;DHT22;34679;51.436;-2.518;2023-07-13T07:10:42;17.30;99.90
48860;DHT22;34679;51.436;-2.518;2023-07-13T07:13:08;17.00;99.90
48860;DHT22;34679;51.436;-2.518;2023-07-13T07:15:35;16.80;99.90
48860;DHT22;34679;51.436;-2.518;2023-07-13T07:18:01;16.70;99.90
48860;DHT22;34679;51.436;-2.518;2023-07-13T07:20:26;16.60;99.90
48860;DHT22;34679;51.436;-2.518;2023-07-13T07:22:53;16.50;99.90
48860;DHT22;34679;51.436;-2.518;2023-07-13T07:25:19;16.50;99.90
48860;DHT22;34679;51.436;-2.518;2023-07-13T07:27:45;16.50;99.90
48860;DHT22;34679;51.436;-2.518;2023-07-13T07:30:11;16.40;99.90
48860;DHT22;34679;51.436;-2.518;2023-07-13T07:32:37;16.40;99.90
48860;DHT22;34679;51.436;-2.518;2023-07-13T07:35:03;16.20;99.90
48860;DHT22;34679;51.436;-2.518;2023-07-13T07:37:29;16.10;99.90
48860;DHT22;34679;51.436;-2.518;2023-07-13T07:39:54;16.10;99.90
48860;DHT22;34679;51.436;-2.518;2023-07-13T07:42:20;16.10;99.90
48860;DHT22;34679;51.436;-2.518;2023-07-13T07:44:46;16.10;99.90
48860;DHT22;34679;51.436;-2.518;2023-07-13T07:47:12;16.10;99.90
48860;DHT22;34679;51.436;-2.518;2023-07-13T07:49:37;16.10;99.90
48860;DHT22;34679;51.436;-2.518;2023-07-13T07:52:04;16.30;99.90
48860;DHT22;34679;51.436;-2.518;2023-07-13T07:54:29;16.30;99.90
48860;DHT22;34679;51.436;-2.518;2023-07-13T07:56:55;16.40;99.90
48860;DHT22;34679;51.436;-2.518;2023-07-13T07:59:21;16.40;99.90
48860;DHT22;34679;51.436;-2.518;2023-07-13T08:01:47;16.40;99.90
48860;DHT22;34679;51.436;-2.518;2023-07-13T08:04:16;16.50;99.90
48860;DHT22;34679;51.436;-2.518;2023-07-13T08:06:41;16.60;99.90
48860;DHT22;34679;51.436;-2.518;2023-07-13T08:09:07;16.70;99.90
48860;DHT22;34679;51.436;-2.518;2023-07-13T08:11:33;16.70;99.90
48860;DHT22;34679;51.436;-2.518;2023-07-13T08:13:59;16.80;99.90
48860;DHT22;34679;51.436;-2.518;2023-07-13T08:16:25;16.70;99.90
48860;DHT22;34679;51.436;-2.518;2023-07-13T08:18:51;16.70;99.90
48860;DHT22;34679;51.436;-2.518;2023-07-13T08:21:17;16.70;99.90
48860;DHT22;34679;51.436;-2.518;2023-07-13T08:23:45;16.70;99.90
48860;DHT22;34679;51.436;-2.518;2023-07-13T08:26:12;16.70;99.90
48860;DHT22;34679;51.436;-2.518;2023-07-13T08:28:38;16.70;99.90
48860;DHT22;34679;51.436;-2.518;2023-07-13T08:31:05;16.90;99.90
48860;DHT22;34679;51.436;-2.518;2023-07-13T08:33:33;17.00;99.90
48860;DHT22;34679;51.436;-2.518;2023-07-13T08:35:59;17.10;99.90
48860;DHT22;34679;51.436;-2.518;2023-07-13T08:38:25;17.00;99.90
48860;DHT22;34679;51.436;-2.518;2023-07-13T08:40:56;17.10;99.90
48860;DHT22;34679;51.436;-2.518;2023-07-13T08:43:32;17.10;99.90
48860;DHT22;34679;51.436;-2.518;2023-07-13T08:46:19;17.10;99.90
48860;DHT22;34679;51.436;-2.518;2023-07-13T08:48:52;17.00;99.90
48860;DHT22;34679;51.436;-2.518;2023-07-13T08:53:58;16.80;99.90
48860;DHT22;34679;51.436;-2.518;2023-07-13T08:56:27;16.60;99.90
48860;DHT22;34679;51.436;-2.518;2023-07-13T08:59:09;16.50;99.90
48860;DHT22;34679;51.436;-2.518;2023-07-13T09:04:40;16.60;99.90
48860;DHT22;34679;51.436;-2.518;2023-07-13T09:10:23;17.10;99.90
48860;DHT22;34679;51.436;-2.518;2023-07-13T09:15:48;17.90;99.90
48860;DHT22;34679;51.436;-2.518;2023-07-13T09:18:16;17.90;99.90
48860;DHT22;34679;51.436;-2.518;2023-07-13T09:20:51;18.20;99.90
48860;DHT22;34679;51.436;-2.518;2023-07-13T09:23:21;18.10;99.90
48860;DHT22;34679;51.436;-2.518;2023-07-13T09:25:49;18.00;99.90
48860;DHT22;34679;51.436;-2.518;2023-07-13T09:28:29;17.80;99.90
48860;DHT22;34679;51.436;-2.518;2023-07-13T09:31:06;17.80;99.90
48860;DHT22;34679;51.436;-2.518;2023-07-13T09:33:32;17.80;99.90
48860;DHT22;34679;51.436;-2.518;2023-07-13T09:36:01;17.80;99.90
48860;DHT22;34679;51.436;-2.518;2023-07-13T09:38:29;17.80;99.90
48860;DHT22;34679;51.436;-2.518;2023-07-13T09:43:30;17.40;99.90
48860;DHT22;34679;51.436;-2.518;2023-07-13T09:45:55;17.30;99.90
48860;DHT22;34679;51.436;-2.518;2023-07-13T09:48:21;17.00;99.90
48860;DHT22;34679;51.436;-2.518;2023-07-13T09:50:47;16.60;99.90
48860;DHT22;34679;51.436;-2.518;2023-07-13T09:53:19;16.10;99.90
48860;DHT22;34679;51.436;-2.518;2023-07-13T09:55:47;15.80;99.90
48860;DHT22;34679;51.436;-2.518;2023-07-13T09:58:18;15.80;99.90
48860;DHT22;34679;51.436;-2.518;2023-07-13T10:01:01;15.90;99.90
48860;DHT22;34679;51.436;-2.518;2023-07-13T10:03:29;16.10;99.90
48860;DHT22;34679;51.436;-2.518;2023-07-13T10:06:09;16.20;99.90
48860;DHT22;34679;51.436;-2.518;2023-07-13T10:08:36;16.40;99.90
48860;DHT22;34679;51.436;-2.518;2023-07-13T10:11:19;16.60;99.90
48860;DHT22;34679;51.436;-2.518;2023-07-13T10:13:56;16.80;99.90
48860;DHT22;34679;51.436;-2.518;2023-07-13T10:16:29;17.10;99.90
48860;DHT22;34679;51.436;-2.518;2023-07-13T10:19:21;17.40;99.90
48860;DHT22;34679;51.436;-2.518;2023-07-13T10:21:54;17.80;99.90
48860;DHT22;34679;51.436;-2.518;2023-07-13T10:24:22;18.20;99.90
48860;DHT22;34679;51.436;-2.518;2023-07-13T10:32:24;18.90;99.90
48860;DHT22;34679;51.436;-2.518;2023-07-13T10:34:51;19.00;99.90
48860;DHT22;34679;51.436;-2.518;2023-07-13T10:38:03;19.10;99.90
48860;DHT22;34679;51.436;-2.518;2023-07-13T10:40:48;19.20;99.90
48860;DHT22;34679;51.436;-2.518;2023-07-13T10:43:25;19.10;99.90
48860;DHT22;34679;51.436;-2.518;2023-07-13T10:45:52;19.20;99.90
48860;DHT22;34679;51.436;-2.518;2023-07-13T10:48:21;19.30;99.90
48860;DHT22;34679;51.436;-2.518;2023-07-13T10:50:49;19.40;99.90
48860;DHT22;34679;51.436;-2.518;2023-07-13T10:53:29;19.40;99.90
48860;DHT22;34679;51.436;-2.518;2023-07-13T10:56:22;19.80;99.90
48860;DHT22;34679;51.436;-2.518;2023-07-13T10:59:47;20.10;99.90
48860;DHT22;34679;51.436;-2.518;2023-07-13T11:02:06;20.60;99.90
48860;DHT22;34679;51.436;-2.518;2023-07-13T11:04:46;21.10;99.90
48860;DHT22;34679;51.436;-2.518;2023-07-13T11:07:25;21.60;99.90
48860;DHT22;34679;51.436;-2.518;2023-07-13T11:09:53;21.50;99.90
48860;DHT22;34679;51.436;-2.518;2023-07-13T11:22:45;20.30;99.90
48860;DHT22;34679;51.436;-2.518;2023-07-13T11:25:32;19.90;99.90
48860;DHT22;34679;51.436;-2.518;2023-07-13T11:30:42;20.60;99.90
48860;DHT22;34679;51.436;-2.518;2023-07-13T11:36:13;20.70;99.90
48860;DHT22;34679;51.436;-2.518;2023-07-13T11:41:26;20.60;99.90
48860;DHT22;34679;51.436;-2.518;2023-07-13T11:43:55;20.60;99.90
48860;DHT22;34679;51.436;-2.518;2023-07-13T11:46:26;20.60;99.90
48860;DHT22;34679;51.436;-2.518;2023-07-13T11:48:53;20.50;99.90
48860;DHT22;34679;51.436;-2.518;2023-07-13T11:51:28;20.50;99.90
48860;DHT22;34679;51.436;-2.518;2023-07-13T11:53:56;20.50;99.90
48860;DHT22;34679;51.436;-2.518;2023-07-13T11:56:24;20.70;99.90
48860;DHT22;34679;51.436;-2.518;2023-07-13T11:58:52;20.80;99.90
48860;DHT22;34679;51.436;-2.518;2023-07-13T12:01:22;20.90;99.90
48860;DHT22;34679;51.436;-2.518;2023-07-13T12:03:49;21.00;99.90
48860;DHT22;34679;51.436;-2.518;2023-07-13T12:06:28;21.10;99.90
48860;DHT22;34679;51.436;-2.518;2023-07-13T12:09:00;21.50;99.90
48860;DHT22;34679;51.436;-2.518;2023-07-13T12:11:27;21.60;99.90
48860;DHT22;34679;51.436;-2.518;2023-07-13T12:13:53;21.80;99.90
48860;DHT22;34679;51.436;-2.518;2023-07-13T12:16:33;21.90;99.90
48860;DHT22;34679;51.436;-2.518;2023-07-13T12:19:02;22.60;99.90
48860;DHT22;34679;51.436;-2.518;2023-07-13T12:21:34;23.10;99.90
48860;DHT22;34679;51.436;-2.518;2023-07-13T12:24:00;23.40;99.90
48860;DHT22;34679;51.436;-2.518;2023-07-13T12:26:30;22.90;99.90
48860;DHT22;34679;51.436;-2.518;2023-07-13T12:28:59;22.50;99.90
48860;DHT22;34679;51.436;-2.518;2023-07-13T12:34:17;22.00;99.90
48860;DHT22;34679;51.436;-2.518;2023-07-13T12:37:00;22.00;99.90
48860;DHT22;34679;51.436;-2.518;2023-07-13T12:39:37;21.90;99.90
48860;DHT22;34679;51.436;-2.518;2023-07-13T12:42:28;21.40;99.90
48860;DHT22;34679;51.436;-2.518;2023-07-13T12:45:00;21.60;99.90
48860;DHT22;34679;51.436;-2.518;2023-07-13T12:47:27;21.50;99.90
48860;DHT22;34679;51.436;-2.518;2023-07-13T12:49:56;21.60;99.90
48860;DHT22;34679;51.436;-2.518;2023-07-13T12:52:31;21.70;99.90
48860;DHT22;34679;51.436;-2.518;2023-07-13T12:55:12;21.60;99.90
48860;DHT22;34679;51.436;-2.518;2023-07-13T12:57:49;21.00;99.90
48860;DHT22;34679;51.436;-2.518;2023-07-13T13:00:29;20.30;99.90
48860;DHT22;34679;51.436;-2.518;2023-07-13T13:02:57;20.40;99.90
48860;DHT22;34679;51.436;-2.518;2023-07-13T13:05:26;20.60;99.90
48860;DHT22;34679;51.436;-2.518;2023-07-13T13:07:52;20.50;99.90
48860;DHT22;34679;51.436;-2.518;2023-07-13T13:10:18;20.60;99.90
48860;DHT22;34679;51.436;-2.518;2023-07-13T13:12:44;20.70;99.90
48860;DHT22;34679;51.436;-2.518;2023-07-13T13:15:13;21.10;99.90
48860;DHT22;34679;51.436;-2.518;2023-07-13T13:17:39;20.80;99.90
48860;DHT22;34679;51.436;-2.518;2023-07-13T13:20:25;20.50;99.90
48860;DHT22;34679;51.436;-2.518;2023-07-13T13:22:51;20.30;99.90
48860;DHT22;34679;51.436;-2.518;2023-07-13T13:25:18;19.90;99.90
48860;DHT22;34679;51.436;-2.518;2023-07-13T13:27:45;19.80;99.90
48860;DHT22;34679;51.436;-2.518;2023-07-13T13:30:16;20.00;99.90
48860;DHT22;34679;51.436;-2.518;2023-07-13T13:32:44;20.30;99.90
48860;DHT22;34679;51.436;-2.518;2023-07-13T13:35:18;20.60;99.90
48860;DHT22;34679;51.436;-2.518;2023-07-13T13:37:46;20.30;99.90
48860;DHT22;34679;51.436;-2.518;2023-07-13T13:40:21;20.60;99.90
48860;DHT22;34679;51.436;-2.518;2023-07-13T13:42:47;20.50;99.90
48860;DHT22;34679;51.436;-2.518;2023-07-13T13:45:13;20.50;99.90
48860;DHT22;34679;51.436;-2.518;2023-07-13T13:47:40;20.70;99.90
48860;DHT22;34679;51.436;-2.518;2023-07-13T13:50:21;21.00;99.90
48860;DHT22;34679;51.436;-2.518;2023-07-13T13:52:48;21.00;99.90
48860;DHT22;34679;51.436;-2.518;2023-07-13T13:55:21;21.20;99.90
48860;DHT22;34679;51.436;-2.518;2023-07-13T13:57:49;21.10;99.90
48860;DHT22;34679;51.436;-2.518;2023-07-13T14:00:16;21.20;99.90
48860;DHT22;34679;51.436;-2.518;2023-07-13T14:02:45;21.40;99.90
48860;DHT22;34679;51.436;-2.518;2023-07-13T14:05:21;21.50;99.90
48860;DHT22;34679;51.436;-2.518;2023-07-13T14:07:47;21.70;99.90
48860;DHT22;34679;51.436;-2.518;2023-07-13T14:10:16;21.60;99.90
48860;DHT22;34679;51.436;-2.518;2023-07-13T14:12:46;21.30;99.90
48860;DHT22;34679;51.436;-2.518;2023-07-13T14:15:26;21.50;99.90
48860;DHT22;34679;51.436;-2.518;2023-07-13T14:17:53;21.60;99.90
48860;DHT22;34679;51.436;-2.518;2023-07-13T14:20:21;21.90;99.90
48860;DHT22;34679;51.436;-2.518;2023-07-13T14:22:49;22.00;99.90
48860;DHT22;34679;51.436;-2.518;2023-07-13T14:25:16;21.60;99.90
48860;DHT22;34679;51.436;-2.518;2023-07-13T14:27:44;21.50;99.90
48860;DHT22;34679;51.436;-2.518;2023-07-13T14:30:14;21.70;99.90
48860;DHT22;34679;51.436;-2.518;2023-07-13T14:32:40;21.80;99.90
48860;DHT22;34679;51.436;-2.518;2023-07-13T14:35:10;21.50;99.90
48860;DHT22;34679;51.436;-2.518;2023-07-13T14:37:36;21.10;99.90
48860;DHT22;34679;51.436;-2.518;2023-07-13T14:40:02;21.10;99.90
48860;DHT22;34679;51.436;-2.518;2023-07-13T14:42:28;20.80;99.90
48860;DHT22;34679;51.436;-2.518;2023-07-13T14:44:54;20.60;99.90
48860;DHT22;34679;51.436;-2.518;2023-07-13T14:47:20;20.60;99.90
48860;DHT22;34679;51.436;-2.518;2023-07-13T14:49:46;20.60;99.90
48860;DHT22;34679;51.436;-2.518;2023-07-13T14:52:20;20.50;99.90
48860;DHT22;34679;51.436;-2.518;2023-07-13T14:54:46;20.50;99.90
48860;DHT22;34679;51.436;-2.518;2023-07-13T14:57:17;20.40;99.90
48860;DHT22;34679;51.436;-2.518;2023-07-13T14:59:44;20.40;99.90
48860;DHT22;34679;51.436;-2.518;2023-07-13T15:02:14;20.30;99.90
48860;DHT22;34679;51.436;-2.518;2023-07-13T15:04:41;20.30;99.90
48860;DHT22;34679;51.436;-2.518;2023-07-13T15:07:10;20.50;99.90
48860;DHT22;34679;51.436;-2.518;2023-07-13T15:09:36;20.40;99.90
48860;DHT22;34679;51.436;-2.518;2023-07-13T15:12:02;20.10;99.90
48860;DHT22;34679;51.436;-2.518;2023-07-13T15:14:28;20.10;99.90
48860;DHT22;34679;51.436;-2.518;2023-07-13T15:16:55;19.90;99.90
48860;DHT22;34679;51.436;-2.518;2023-07-13T15:19:21;20.10;99.90
48860;DHT22;34679;51.436;-2.518;2023-07-13T15:21:49;20.20;99.90
48860;DHT22;34679;51.436;-2.518;2023-07-13T15:24:15;20.60;99.90
48860;DHT22;34679;51.436;-2.518;2023-07-13T15:26:42;20.80;99.90
48860;DHT22;34679;51.436;-2.518;2023-07-13T15:29:12;20.90;99.90
48860;DHT22;34679;51.436;-2.518;2023-07-13T15:31:38;20.50;99.90
48860;DHT22;34679;51.436;-2.518;2023-07-13T15:34:11;20.00;99.90
48860;DHT22;34679;51.436;-2.518;2023-07-13T15:36:38;19.70;99.90
48860;DHT22;34679;51.436;-2.518;2023-07-13T15:39:04;19.80;99.90
48860;DHT22;34679;51.436;-2.518;2023-07-13T15:41:31;19.80;99.90
48860;DHT22;34679;51.436;-2.518;2023-07-13T15:43:59;20.00;99.90
48860;DHT22;34679;51.436;-2.518;2023-07-13T15:46:26;19.90;99.90
48860;DHT22;34679;51.436;-2.518;2023-07-13T15:48:53;20.10;99.90
48860;DHT22;34679;51.436;-2.518;2023-07-13T15:51:24;20.10;99.90
48860;DHT22;34679;51.436;-2.518;2023-07-13T15:53:52;19.90;99.90
48860;DHT22;34679;51.436;-2.518;2023-07-13T15:56:25;20.10;99.90
48860;DHT22;34679;51.436;-2.518;2023-07-13T15:58:52;20.00;99.90
48860;DHT22;34679;51.436;-2.518;2023-07-13T16:01:18;20.00;99.90
48860;DHT22;34679;51.436;-2.518;2023-07-13T16:03:46;19.80;99.90